sensor_id;sensor_type;location;lat;lon;timestamp;temperature;humidity
2158;DHT22;41972;48.774;9.282;2023-07-29T00:01:30;17.00;99.90
2158;DHT22;41972;48.774;9.282;2023-07-29T00:03:56;17.00;99.90
2158;DHT22;41972;48.774;9.282;2023-07-29T00:06:22;17.00;99.90
2158;DHT22;41972;48.774;9.282;2023-07-29T00:08:47;17.10;99.90
2158;DHT22;41972;48.774;9.282;2023-07-29T00:11:13;17.10;99.90
2158;DHT22;41972;48.774;9.282;2023-07-29T00:13:39;17.10;99.90
2158;DHT22;41972;48.774;9.282;2023-07-29T00:16:04;17.10;99.90
2158;DHT22;41972;48.774;9.282;2023-07-29T00:18:30;17.20;99.90
2158;DHT22;41972;48.774;9.282;2023-07-29T00:20:56;17.10;99.90
2158;DHT22;41972;48.774;9.282;2023-07-29T00:23:23;17.10;99.90
2158;DHT22;41972;48.774;9.282;2023-07-29T00:25:48;17.10;99.90
2158;DHT22;41972;48.774;9.282;2023-07-29T00:28:14;17.10;99.90
2158;DHT22;41972;48.774;9.282;2023-07-29T00:30:39;17.00;99.90
2158;DHT22;41972;48.774;9.282;2023-07-29T00:33:05;17.00;99.90
2158;DHT22;41972;48.774;9.282;2023-07-29T00:35:30;17.00;99.90
2158;DHT22;41972;48.774;9.282;2023-07-29T00:37:56;17.10;99.90
2158;DHT22;41972;48.774;9.282;2023-07-29T00:40:22;17.10;99.90
2158;DHT22;41972;48.774;9.282;2023-07-29T00:42:48;17.10;99.90
2158;DHT22;41972;48.774;9.282;2023-07-29T00:45:14;17.10;99.90
2158;DHT22;41972;48.774;9.282;2023-07-29T00:47:41;17.10;99.90
2158;DHT22;41972;48.774;9.282;2023-07-29T00:50:09;17.10;99.90
2158;DHT22;41972;48.774;9.282;2023-07-29T00:52:36;17.20;99.90
2158;DHT22;41972;48.774;9.282;2023-07-29T00:55:02;17.10;99.90
2158;DHT22;41972;48.774;9.282;2023-07-29T00:57:30;17.10;99.90
2158;DHT22;41972;48.774;9.282;2023-07-29T00:59:56;17.20;99.90
2158;DHT22;41972;48.774;9.282;2023-07-29T01:02:22;17.20;99.90
2158;DHT22;41972;48.774;9.282;2023-07-29T01:04:55;17.30;99.90
2158;DHT22;41972;48.774;9.282;2023-07-29T01:07:36;17.20;99.90
2158;DHT22;41972;48.774;9.282;2023-07-29T01:10:15;17.10;99.90
2158;DHT22;41972;48.774;9.282;2023-07-29T01:18:11;17.00;99.90
2158;DHT22;41972;48.774;9.282;2023-07-29T01:20:40;17.10;99.90
2158;DHT22;41972;48.774;9.282;2023-07-29T01:23:08;17.10;99.90
2158;DHT22;41972;48.774;9.282;2023-07-29T01:25:33;17.20;99.90
2158;DHT22;41972;48.774;9.282;2023-07-29T01:27:59;17.10;99.90
2158;DHT22;41972;48.774;9.282;2023-07-29T01:30:30;17.00;99.90
2158;DHT22;41972;48.774;9.282;2023-07-29T01:33:18;17.10;99.90
2158;DHT22;41972;48.774;9.282;2023-07-29T01:35:48;16.80;99.90
2158;DHT22;41972;48.774;9.282;2023-07-29T01:38:19;16.80;99.90
2158;DHT22;41972;48.774;9.282;2023-07-29T01:40:48;16.80;99.90
2158;DHT22;41972;48.774;9.282;2023-07-29T01:43:14;16.80;99.90
2158;DHT22;41972;48.774;9.282;2023-07-29T01:45:40;16.90;99.90
2158;DHT22;41972;48.774;9.282;2023-07-29T01:48:06;16.90;99.90
2158;DHT22;41972;48.774;9.282;2023-07-29T01:50:32;16.90;99.90
2158;DHT22;41972;48.774;9.282;2023-07-29T01:52:58;16.90;99.90
2158;DHT22;41972;48.774;9.282;2023-07-29T01:55:24;17.00;99.90
2158;DHT22;41972;48.774;9.282;2023-07-29T01:57:49;16.90;99.90
2158;DHT22;41972;48.774;9.282;2023-07-29T02:00:16;17.00;99.90
2158;DHT22;41972;48.774;9.282;2023-07-29T02:02:43;17.10;99.90
2158;DHT22;41972;48.774;9.282;2023-07-29T02:05:09;17.20;99.90
2158;DHT22;41972;48.774;9.282;2023-07-29T02:07:34;17.10;99.90
2158;DHT22;41972;48.774;9.282;2023-07-29T02:10:00;17.20;99.90
2158;DHT22;41972;48.774;9.282;2023-07-29T02:12:25;17.30;99.90
2158;DHT22;41972;48.774;9.282;2023-07-29T02:14:51;17.30;99.90
2158;DHT22;41972;48.774;9.282;2023-07-29T02:17:16;17.30;99.90
2158;DHT22;41972;48.774;9.282;2023-07-29T02:19:42;17.20;99.90
2158;DHT22;41972;48.774;9.282;2023-07-29T02:22:08;17.30;99.90
2158;DHT22;41972;48.774;9.282;2023-07-29T02:24:33;17.20;99.90
2158;DHT22;41972;48.774;9.282;2023-07-29T02:26:59;17.30;99.90
2158;DHT22;41972;48.774;9.282;2023-07-29T02:29:24;17.30;99.90
2158;DHT22;41972;48.774;9.282;2023-07-29T02:31:50;17.30;99.90
2158;DHT22;41972;48.774;9.282;2023-07-29T02:34:16;17.40;99.90
2158;DHT22;41972;48.774;9.282;2023-07-29T02:36:41;17.30;99.90
2158;DHT22;41972;48.774;9.282;2023-07-29T02:39:07;17.40;99.90
2158;DHT22;41972;48.774;9.282;2023-07-29T02:41:33;17.30;99.90
2158;DHT22;41972;48.774;9.282;2023-07-29T02:43:59;17.30;99.90
2158;DHT22;41972;48.774;9.282;2023-07-29T02:46:24;17.30;99.90
2158;DHT22;41972;48.774;9.282;2023-07-29T02:48:50;17.30;99.90
2158;DHT22;41972;48.774;9.282;2023-07-29T02:51:16;17.30;99.90
2158;DHT22;41972;48.774;9.282;2023-07-29T02:53:41;17.10;99.90
2158;DHT22;41972;48.774;9.282;2023-07-29T02:56:07;17.10;99.90
2158;DHT22;41972;48.774;9.282;2023-07-29T02:58:34;17.10;99.90
2158;DHT22;41972;48.774;9.282;2023-07-29T03:01:01;17.10;99.90
2158;DHT22;41972;48.774;9.282;2023-07-29T03:03:27;17.10;99.90
2158;DHT22;41972;48.774;9.282;2023-07-29T03:06:04;17.10;99.90
2158;DHT22;41972;48.774;9.282;2023-07-29T03:08:30;17.10;99.90
2158;DHT22;41972;48.774;9.282;2023-07-29T03:10:56;17.10;99.90
2158;DHT22;41972;48.774;9.282;2023-07-29T03:13:22;17.10;99.90
2158;DHT22;41972;48.774;9.282;2023-07-29T03:15:47;17.10;99.90
2158;DHT22;41972;48.774;9.282;2023-07-29T03:18:14;17.10;99.90
2158;DHT22;41972;48.774;9.282;2023-07-29T03:20:40;17.10;99.90
2158;DHT22;41972;48.774;9.282;2023-07-29T03:23:05;17.10;99.90
2158;DHT22;41972;48.774;9.282;2023-07-29T03:25:31;17.00;99.90
2158;DHT22;41972;48.774;9.282;2023-07-29T03:27:57;16.90;99.90
2158;DHT22;41972;48.774;9.282;2023-07-29T03:30:22;16.80;99.90
2158;DHT22;41972;48.774;9.282;2023-07-29T03:32:49;16.80;99.90
2158;DHT22;41972;48.774;9.282;2023-07-29T03:35:15;16.90;99.90
2158;DHT22;41972;48.774;9.282;2023-07-29T03:37:41;16.90;99.90
2158;DHT22;41972;48.774;9.282;2023-07-29T03:40:07;16.90;99.90
2158;DHT22;41972;48.774;9.282;2023-07-29T03:42:34;16.90;99.90
2158;DHT22;41972;48.774;9.282;2023-07-29T03:45:00;17.10;99.90
2158;DHT22;41972;48.774;9.282;2023-07-29T03:47:26;17.00;99.90
2158;DHT22;41972;48.774;9.282;2023-07-29T03:49:51;17.10;99.90
2158;DHT22;41972;48.774;9.282;2023-07-29T03:52:17;17.10;99.90
2158;DHT22;41972;48.774;9.282;2023-07-29T03:54:42;17.20;99.90
2158;DHT22;41972;48.774;9.282;2023-07-29T03:57:08;17.20;99.90
2158;DHT22;41972;48.774;9.282;2023-07-29T03:59:34;17.30;99.90
2158;DHT22;41972;48.774;9.282;2023-07-29T04:01:59;17.40;99.90
2158;DHT22;41972;48.774;9.282;2023-07-29T04:04:25;17.40;99.90
2158;DHT22;41972;48.774;9.282;2023-07-29T04:06:50;17.40;99.90
2158;DHT22;41972;48.774;9.282;2023-07-29T04:09:16;17.40;99.90
2158;DHT22;41972;48.774;9.282;2023-07-29T04:11:41;17.50;99.90
2158;DHT22;41972;48.774;9.282;2023-07-29T04:14:07;17.60;99.90
2158;DHT22;41972;48.774;9.282;2023-07-29T04:16:33;17.60;99.90
2158;DHT22;41972;48.774;9.282;2023-07-29T04:18:58;17.50;99.90
2158;DHT22;41972;48.774;9.282;2023-07-29T04:21:24;17.60;99.90
2158;DHT22;41972;48.774;9.282;2023-07-29T04:23:49;17.50;99.90
2158;DHT22;41972;48.774;9.282;2023-07-29T04:26:15;17.40;99.90
2158;DHT22;41972;48.774;9.282;2023-07-29T04:28:41;17.40;99.90
2158;DHT22;41972;48.774;9.282;2023-07-29T04:31:07;17.40;99.90
2158;DHT22;41972;48.774;9.282;2023-07-29T04:33:32;17.30;99.90
2158;DHT22;41972;48.774;9.282;2023-07-29T04:35:58;17.40;99.90
2158;DHT22;41972;48.774;9.282;2023-07-29T04:38:31;17.50;99.90
2158;DHT22;41972;48.774;9.282;2023-07-29T04:40:57;17.40;99.90
2158;DHT22;41972;48.774;9.282;2023-07-29T04:43:30;17.50;99.90
2158;DHT22;41972;48.774;9.282;2023-07-29T04:45:56;17.60;99.90
2158;DHT22;41972;48.774;9.282;2023-07-29T04:48:22;17.20;99.90
2158;DHT22;41972;48.774;9.282;2023-07-29T04:50:48;17.20;99.90
2158;DHT22;41972;48.774;9.282;2023-07-29T04:53:13;17.30;99.90
2158;DHT22;41972;48.774;9.282;2023-07-29T04:55:41;17.30;99.90
2158;DHT22;41972;48.774;9.282;2023-07-29T04:58:08;17.30;99.90
2158;DHT22;41972;48.774;9.282;2023-07-29T05:00:33;17.20;99.90
2158;DHT22;41972;48.774;9.282;2023-07-29T05:02:59;17.20;99.90
2158;DHT22;41972;48.774;9.282;2023-07-29T05:05:25;17.20;99.90
2158;DHT22;41972;48.774;9.282;2023-07-29T05:07:50;17.20;99.90
2158;DHT22;41972;48.774;9.282;2023-07-29T05:10:16;17.30;99.90
2158;DHT22;41972;48.774;9.282;2023-07-29T05:12:41;17.20;99.90
2158;DHT22;41972;48.774;9.282;2023-07-29T05:15:08;17.30;99.90
2158;DHT22;41972;48.774;9.282;2023-07-29T05:17:33;17.30;99.90
2158;DHT22;41972;48.774;9.282;2023-07-29T05:19:59;17.20;99.90
2158;DHT22;41972;48.774;9.282;2023-07-29T05:22:25;17.20;99.90
2158;DHT22;41972;48.774;9.282;2023-07-29T05:24:50;17.10;99.90
2158;DHT22;41972;48.774;9.282;2023-07-29T05:27:16;17.10;99.90
2158;DHT22;41972;48.774;9.282;2023-07-29T05:29:42;17.20;99.90
2158;DHT22;41972;48.774;9.282;2023-07-29T05:32:07;17.30;99.90
2158;DHT22;41972;48.774;9.282;2023-07-29T05:34:33;17.40;99.90
2158;DHT22;41972;48.774;9.282;2023-07-29T05:36:58;17.40;99.90
2158;DHT22;41972;48.774;9.282;2023-07-29T05:39:25;17.40;99.90
2158;DHT22;41972;48.774;9.282;2023-07-29T05:41:51;17.40;99.90
2158;DHT22;41972;48.774;9.282;2023-07-29T05:44:17;17.40;99.90
2158;DHT22;41972;48.774;9.282;2023-07-29T05:46:42;17.40;99.90
2158;DHT22;41972;48.774;9.282;2023-07-29T05:49:08;17.40;99.90
2158;DHT22;41972;48.774;9.282;2023-07-29T05:51:33;17.50;99.90
2158;DHT22;41972;48.774;9.282;2023-07-29T05:53:59;17.60;99.90
2158;DHT22;41972;48.774;9.282;2023-07-29T05:56:24;17.90;99.90
2158;DHT22;41972;48.774;9.282;2023-07-29T05:58:50;18.20;99.90
2158;DHT22;41972;48.774;9.282;2023-07-29T06:01:15;18.40;99.90
2158;DHT22;41972;48.774;9.282;2023-07-29T06:03:41;18.50;99.90
2158;DHT22;41972;48.774;9.282;2023-07-29T06:06:07;18.20;99.90
2158;DHT22;41972;48.774;9.282;2023-07-29T06:08:33;18.20;99.90
2158;DHT22;41972;48.774;9.282;2023-07-29T06:11:00;18.60;99.90
2158;DHT22;41972;48.774;9.282;2023-07-29T06:13:25;18.50;99.90
2158;DHT22;41972;48.774;9.282;2023-07-29T06:15:51;18.80;99.90
2158;DHT22;41972;48.774;9.282;2023-07-29T06:18:16;19.30;99.90
2158;DHT22;41972;48.774;9.282;2023-07-29T06:20:42;19.80;99.90
2158;DHT22;41972;48.774;9.282;2023-07-29T06:23:08;20.00;99.90
2158;DHT22;41972;48.774;9.282;2023-07-29T06:25:33;19.60;99.90
2158;DHT22;41972;48.774;9.282;2023-07-29T06:27:59;19.20;99.90
2158;DHT22;41972;48.774;9.282;2023-07-29T06:30:25;18.80;99.90
2158;DHT22;41972;48.774;9.282;2023-07-29T06:32:50;18.60;99.90
2158;DHT22;41972;48.774;9.282;2023-07-29T06:35:16;18.50;99.90
2158;DHT22;41972;48.774;9.282;2023-07-29T06:37:41;18.10;99.90
2158;DHT22;41972;48.774;9.282;2023-07-29T06:40:07;18.10;99.90
2158;DHT22;41972;48.774;9.282;2023-07-29T06:42:33;18.20;99.90
2158;DHT22;41972;48.774;9.282;2023-07-29T06:44:58;18.40;99.90
2158;DHT22;41972;48.774;9.282;2023-07-29T06:47:24;18.50;99.90
2158;DHT22;41972;48.774;9.282;2023-07-29T06:49:49;18.20;99.90
2158;DHT22;41972;48.774;9.282;2023-07-29T06:52:15;18.10;99.90
2158;DHT22;41972;48.774;9.282;2023-07-29T06:54:41;18.10;99.90
2158;DHT22;41972;48.774;9.282;2023-07-29T06:57:06;18.10;99.90
2158;DHT22;41972;48.774;9.282;2023-07-29T06:59:32;18.20;99.90
2158;DHT22;41972;48.774;9.282;2023-07-29T07:01:57;17.90;99.90
2158;DHT22;41972;48.774;9.282;2023-07-29T07:04:25;18.00;99.90
2158;DHT22;41972;48.774;9.282;2023-07-29T07:06:50;17.90;99.90
2158;DHT22;41972;48.774;9.282;2023-07-29T07:09:16;17.70;99.90
2158;DHT22;41972;48.774;9.282;2023-07-29T07:11:42;17.70;99.90
2158;DHT22;41972;48.774;9.282;2023-07-29T07:14:08;17.70;99.90
2158;DHT22;41972;48.774;9.282;2023-07-29T07:16:35;17.70;99.90
2158;DHT22;41972;48.774;9.282;2023-07-29T07:19:02;17.80;99.90
2158;DHT22;41972;48.774;9.282;2023-07-29T07:21:28;17.80;99.90
2158;DHT22;41972;48.774;9.282;2023-07-29T07:23:53;17.80;99.90
2158;DHT22;41972;48.774;9.282;2023-07-29T07:26:19;17.90;99.90
2158;DHT22;41972;48.774;9.282;2023-07-29T07:28:45;17.90;99.90
2158;DHT22;41972;48.774;9.282;2023-07-29T07:31:10;17.90;99.90
2158;DHT22;41972;48.774;9.282;2023-07-29T07:33:36;18.00;99.90
2158;DHT22;41972;48.774;9.282;2023-07-29T07:36:02;18.10;99.90
2158;DHT22;41972;48.774;9.282;2023-07-29T07:38:27;18.20;99.90
2158;DHT22;41972;48.774;9.282;2023-07-29T07:40:55;18.20;99.90
2158;DHT22;41972;48.774;9.282;2023-07-29T07:43:22;18.20;99.90
2158;DHT22;41972;48.774;9.282;2023-07-29T07:45:47;18.20;99.90
2158;DHT22;41972;48.774;9.282;2023-07-29T07:48:13;18.40;99.90
2158;DHT22;41972;48.774;9.282;2023-07-29T07:50:39;18.50;99.90
2158;DHT22;41972;48.774;9.282;2023-07-29T07:53:05;18.60;99.90
2158;DHT22;41972;48.774;9.282;2023-07-29T07:55:31;18.70;99.90
2158;DHT22;41972;48.774;9.282;2023-07-29T07:57:56;18.80;99.90
2158;DHT22;41972;48.774;9.282;2023-07-29T08:00:22;18.80;99.90
2158;DHT22;41972;48.774;9.282;2023-07-29T08:02:47;18.60;99.90
2158;DHT22;41972;48.774;9.282;2023-07-29T08:05:14;18.60;99.90
2158;DHT22;41972;48.774;9.282;2023-07-29T08:07:40;18.60;99.90
2158;DHT22;41972;48.774;9.282;2023-07-29T08:10:06;18.70;99.90
2158;DHT22;41972;48.774;9.282;2023-07-29T08:12:32;18.80;99.90
2158;DHT22;41972;48.774;9.282;2023-07-29T08:14:58;18.90;99.90
2158;DHT22;41972;48.774;9.282;2023-07-29T08:17:23;19.00;99.90
2158;DHT22;41972;48.774;9.282;2023-07-29T08:19:49;19.30;99.90
2158;DHT22;41972;48.774;9.282;2023-07-29T08:22:14;19.60;99.90
2158;DHT22;41972;48.774;9.282;2023-07-29T08:24:42;20.40;99.90
2158;DHT22;41972;48.774;9.282;2023-07-29T08:27:08;21.70;99.90
2158;DHT22;41972;48.774;9.282;2023-07-29T08:29:33;22.40;99.90
2158;DHT22;41972;48.774;9.282;2023-07-29T08:31:59;22.20;99.90
2158;DHT22;41972;48.774;9.282;2023-07-29T08:34:25;21.50;99.90
2158;DHT22;41972;48.774;9.282;2023-07-29T08:36:50;21.80;99.90
2158;DHT22;41972;48.774;9.282;2023-07-29T08:39:16;22.30;99.90
2158;DHT22;41972;48.774;9.282;2023-07-29T08:41:57;23.00;99.90
2158;DHT22;41972;48.774;9.282;2023-07-29T08:44:33;23.00;99.90
2158;DHT22;41972;48.774;9.282;2023-07-29T08:47:00;23.90;99.90
2158;DHT22;41972;48.774;9.282;2023-07-29T08:49:26;24.30;99.90
2158;DHT22;41972;48.774;9.282;2023-07-29T08:51:53;23.50;99.90
2158;DHT22;41972;48.774;9.282;2023-07-29T08:54:19;23.40;99.90
2158;DHT22;41972;48.774;9.282;2023-07-29T08:56:45;24.00;99.90
2158;DHT22;41972;48.774;9.282;2023-07-29T08:59:11;24.20;99.90
2158;DHT22;41972;48.774;9.282;2023-07-29T09:01:38;24.50;99.90
2158;DHT22;41972;48.774;9.282;2023-07-29T09:04:04;26.10;99.90
2158;DHT22;41972;48.774;9.282;2023-07-29T09:06:31;28.30;99.90
2158;DHT22;41972;48.774;9.282;2023-07-29T09:08:58;29.70;99.90
2158;DHT22;41972;48.774;9.282;2023-07-29T09:11:25;28.90;99.90
2158;DHT22;41972;48.774;9.282;2023-07-29T09:13:51;26.80;99.90
2158;DHT22;41972;48.774;9.282;2023-07-29T09:16:18;26.30;99.90
2158;DHT22;41972;48.774;9.282;2023-07-29T09:18:44;25.20;99.90
2158;DHT22;41972;48.774;9.282;2023-07-29T09:21:09;25.50;99.90
2158;DHT22;41972;48.774;9.282;2023-07-29T09:23:42;24.60;99.90
2158;DHT22;41972;48.774;9.282;2023-07-29T09:26:08;24.60;99.90
2158;DHT22;41972;48.774;9.282;2023-07-29T09:28:36;24.70;99.90
2158;DHT22;41972;48.774;9.282;2023-07-29T09:31:02;24.00;99.90
2158;DHT22;41972;48.774;9.282;2023-07-29T09:33:29;24.00;99.90
2158;DHT22;41972;48.774;9.282;2023-07-29T09:35:56;23.70;99.90
2158;DHT22;41972;48.774;9.282;2023-07-29T09:38:28;23.60;99.90
2158;DHT22;41972;48.774;9.282;2023-07-29T09:40:57;24.70;99.90
2158;DHT22;41972;48.774;9.282;2023-07-29T09:43:31;25.80;99.90
2158;DHT22;41972;48.774;9.282;2023-07-29T09:46:01;25.40;99.90
2158;DHT22;41972;48.774;9.282;2023-07-29T09:48:28;25.90;99.90
2158;DHT22;41972;48.774;9.282;2023-07-29T09:50:56;26.50;99.90
2158;DHT22;41972;48.774;9.282;2023-07-29T09:53:22;26.10;99.90
2158;DHT22;41972;48.774;9.282;2023-07-29T09:55:48;26.00;99.90
2158;DHT22;41972;48.774;9.282;2023-07-29T09:58:19;25.20;99.90
2158;DHT22;41972;48.774;9.282;2023-07-29T10:00:45;25.60;99.90
2158;DHT22;41972;48.774;9.282;2023-07-29T10:03:11;25.80;99.90
2158;DHT22;41972;48.774;9.282;2023-07-29T10:05:38;26.20;99.90
2158;DHT22;41972;48.774;9.282;2023-07-29T10:08:04;26.60;99.90
2158;DHT22;41972;48.774;9.282;2023-07-29T10:10:30;28.80;99.90
2158;DHT22;41972;48.774;9.282;2023-07-29T10:12:56;29.70;99.90
2158;DHT22;41972;48.774;9.282;2023-07-29T10:15:22;31.30;99.90
2158;DHT22;41972;48.774;9.282;2023-07-29T10:17:48;32.80;99.90
2158;DHT22;41972;48.774;9.282;2023-07-29T10:20:15;35.00;99.90
2158;DHT22;41972;48.774;9.282;2023-07-29T10:22:43;33.10;99.90
2158;DHT22;41972;48.774;9.282;2023-07-29T10:25:21;31.90;99.90
2158;DHT22;41972;48.774;9.282;2023-07-29T10:27:53;29.40;99.90
2158;DHT22;41972;48.774;9.282;2023-07-29T10:30:20;28.00;99.90
2158;DHT22;41972;48.774;9.282;2023-07-29T10:32:47;28.60;99.90
2158;DHT22;41972;48.774;9.282;2023-07-29T10:35:14;27.00;99.90
2158;DHT22;41972;48.774;9.282;2023-07-29T10:37:41;27.40;99.90
2158;DHT22;41972;48.774;9.282;2023-07-29T10:40:10;27.70;99.90
2158;DHT22;41972;48.774;9.282;2023-07-29T10:42:38;26.20;99.90
2158;DHT22;41972;48.774;9.282;2023-07-29T10:45:18;26.50;99.90
2158;DHT22;41972;48.774;9.282;2023-07-29T10:47:44;25.20;99.90
2158;DHT22;41972;48.774;9.282;2023-07-29T10:50:18;25.00;99.90
2158;DHT22;41972;48.774;9.282;2023-07-29T10:52:43;24.40;99.90
2158;DHT22;41972;48.774;9.282;2023-07-29T10:55:32;24.20;99.90
2158;DHT22;41972;48.774;9.282;2023-07-29T10:58:14;25.00;99.90
2158;DHT22;41972;48.774;9.282;2023-07-29T11:00:42;25.40;99.90
2158;DHT22;41972;48.774;9.282;2023-07-29T11:03:09;25.90;99.90
2158;DHT22;41972;48.774;9.282;2023-07-29T11:05:53;26.20;99.90
2158;DHT22;41972;48.774;9.282;2023-07-29T11:11:07;27.70;99.90
2158;DHT22;41972;48.774;9.282;2023-07-29T11:13:35;25.60;99.90
2158;DHT22;41972;48.774;9.282;2023-07-29T11:16:01;25.60;99.90
2158;DHT22;41972;48.774;9.282;2023-07-29T11:18:34;26.00;99.90
2158;DHT22;41972;48.774;9.282;2023-07-29T11:21:04;26.10;99.90
2158;DHT22;41972;48.774;9.282;2023-07-29T11:23:34;25.50;99.90
2158;DHT22;41972;48.774;9.282;2023-07-29T11:26:01;26.10;99.90
2158;DHT22;41972;48.774;9.282;2023-07-29T11:28:27;25.90;99.90
2158;DHT22;41972;48.774;9.282;2023-07-29T11:30:56;25.90;99.90
2158;DHT22;41972;48.774;9.282;2023-07-29T11:33:25;26.00;99.90
2158;DHT22;41972;48.774;9.282;2023-07-29T11:35:53;26.80;99.90
2158;DHT22;41972;48.774;9.282;2023-07-29T11:38:20;27.20;99.90
2158;DHT22;41972;48.774;9.282;2023-07-29T11:43:22;25.40;99.90
2158;DHT22;41972;48.774;9.282;2023-07-29T11:45:47;25.30;99.90
2158;DHT22;41972;48.774;9.282;2023-07-29T11:48:13;25.90;99.90
2158;DHT22;41972;48.774;9.282;2023-07-29T11:50:38;26.40;99.90
2158;DHT22;41972;48.774;9.282;2023-07-29T11:53:05;25.90;99.90
2158;DHT22;41972;48.774;9.282;2023-07-29T11:55:30;25.30;99.90
2158;DHT22;41972;48.774;9.282;2023-07-29T11:57:56;25.20;99.90
2158;DHT22;41972;48.774;9.282;2023-07-29T12:00:22;25.30;99.90
2158;DHT22;41972;48.774;9.282;2023-07-29T12:02:49;25.70;99.90
2158;DHT22;41972;48.774;9.282;2023-07-29T12:05:15;25.40;99.90
2158;DHT22;41972;48.774;9.282;2023-07-29T12:07:43;25.70;99.90
2158;DHT22;41972;48.774;9.282;2023-07-29T12:10:10;26.10;99.90
2158;DHT22;41972;48.774;9.282;2023-07-29T12:13:04;26.10;99.90
2158;DHT22;41972;48.774;9.282;2023-07-29T12:15:33;25.70;99.90
2158;DHT22;41972;48.774;9.282;2023-07-29T12:18:00;25.80;99.90
2158;DHT22;41972;48.774;9.282;2023-07-29T12:20:27;26.00;99.90
2158;DHT22;41972;48.774;9.282;2023-07-29T12:22:55;26.10;99.90
2158;DHT22;41972;48.774;9.282;2023-07-29T12:25:22;26.30;99.90
2158;DHT22;41972;48.774;9.282;2023-07-29T12:27:47;26.80;99.90
2158;DHT22;41972;48.774;9.282;2023-07-29T12:30:13;26.10;99.90
2158;DHT22;41972;48.774;9.282;2023-07-29T12:32:45;26.10;99.90
2158;DHT22;41972;48.774;9.282;2023-07-29T12:35:12;26.00;99.90
2158;DHT22;41972;48.774;9.282;2023-07-29T12:37:37;26.20;99.90
2158;DHT22;41972;48.774;9.282;2023-07-29T12:40:04;25.80;99.90
2158;DHT22;41972;48.774;9.282;2023-07-29T12:42:30;25.50;99.90
2158;DHT22;41972;48.774;9.282;2023-07-29T12:44:55;26.00;99.90
2158;DHT22;41972;48.774;9.282;2023-07-29T12:47:21;26.70;99.90
2158;DHT22;41972;48.774;9.282;2023-07-29T12:49:47;26.70;99.90
2158;DHT22;41972;48.774;9.282;2023-07-29T12:52:12;26.60;99.90
2158;DHT22;41972;48.774;9.282;2023-07-29T12:54:38;26.40;99.90
2158;DHT22;41972;48.774;9.282;2023-07-29T12:57:05;26.70;99.90
2158;DHT22;41972;48.774;9.282;2023-07-29T12:59:31;26.80;99.90
2158;DHT22;41972;48.774;9.282;2023-07-29T13:01:57;26.40;99.90
2158;DHT22;41972;48.774;9.282;2023-07-29T13:04:22;26.20;99.90
2158;DHT22;41972;48.774;9.282;2023-07-29T13:06:48;26.60;99.90
2158;DHT22;41972;48.774;9.282;2023-07-29T13:09:13;26.50;99.90
2158;DHT22;41972;48.774;9.282;2023-07-29T13:11:39;27.10;99.90
2158;DHT22;41972;48.774;9.282;2023-07-29T13:14:04;27.00;99.90
2158;DHT22;41972;48.774;9.282;2023-07-29T13:16:30;26.80;99.90
2158;DHT22;41972;48.774;9.282;2023-07-29T13:18:55;26.80;99.90
2158;DHT22;41972;48.774;9.282;2023-07-29T13:21:22;27.00;99.90
2158;DHT22;41972;48.774;9.282;2023-07-29T13:23:47;26.70;99.90
2158;DHT22;41972;48.774;9.282;2023-07-29T13:26:13;26.80;99.90
2158;DHT22;41972;48.774;9.282;2023-07-29T13:28:38;27.00;99.90
2158;DHT22;41972;48.774;9.282;2023-07-29T13:31:04;27.30;99.90
2158;DHT22;41972;48.774;9.282;2023-07-29T13:33:29;27.40;99.90
2158;DHT22;41972;48.774;9.282;2023-07-29T13:35:59;27.40;99.90
2158;DHT22;41972;48.774;9.282;2023-07-29T13:38:25;26.80;99.90
2158;DHT22;41972;48.774;9.282;2023-07-29T13:40:50;27.10;99.90
2158;DHT22;41972;48.774;9.282;2023-07-29T13:43:16;27.20;99.90
2158;DHT22;41972;48.774;9.282;2023-07-29T13:45:42;27.20;99.90
2158;DHT22;41972;48.774;9.282;2023-07-29T13:48:07;27.50;99.90
2158;DHT22;41972;48.774;9.282;2023-07-29T13:50:33;27.50;99.90
2158;DHT22;41972;48.774;9.282;2023-07-29T13:52:58;27.90;99.90
2158;DHT22;41972;48.774;9.282;2023-07-29T13:55:25;28.20;99.90
2158;DHT22;41972;48.774;9.282;2023-07-29T13:57:50;28.60;99.90
2158;DHT22;41972;48.774;9.282;2023-07-29T14:00:16;28.90;99.90
2158;DHT22;41972;48.774;9.282;2023-07-29T14:02:42;28.70;99.90
2158;DHT22;41972;48.774;9.282;2023-07-29T14:05:09;28.70;99.90
2158;DHT22;41972;48.774;9.282;2023-07-29T14:07:37;28.70;99.90
2158;DHT22;41972;48.774;9.282;2023-07-29T14:10:02;27.90;99.90
2158;DHT22;41972;48.774;9.282;2023-07-29T14:12:28;27.90;99.90
2158;DHT22;41972;48.774;9.282;2023-07-29T14:14:53;27.50;99.90
2158;DHT22;41972;48.774;9.282;2023-07-29T14:17:19;26.90;99.90
2158;DHT22;41972;48.774;9.282;2023-07-29T14:19:45;27.30;99.90
2158;DHT22;41972;48.774;9.282;2023-07-29T14:22:10;27.80;99.90
2158;DHT22;41972;48.774;9.282;2023-07-29T14:24:36;27.60;99.90
2158;DHT22;41972;48.774;9.282;2023-07-29T14:27:01;27.80;99.90
2158;DHT22;41972;48.774;9.282;2023-07-29T14:29:28;27.70;99.90
2158;DHT22;41972;48.774;9.282;2023-07-29T14:31:54;26.80;99.90
2158;DHT22;41972;48.774;9.282;2023-07-29T14:34:19;27.00;99.90
2158;DHT22;41972;48.774;9.282;2023-07-29T14:36:45;26.80;99.90
2158;DHT22;41972;48.774;9.282;2023-07-29T14:39:10;26.60;99.90
2158;DHT22;41972;48.774;9.282;2023-07-29T14:41:36;26.40;99.90
2158;DHT22;41972;48.774;9.282;2023-07-29T14:44:02;26.40;99.90
2158;DHT22;41972;48.774;9.282;2023-07-29T14:46:28;26.20;99.90
2158;DHT22;41972;48.774;9.282;2023-07-29T14:48:53;26.40;99.90
2158;DHT22;41972;48.774;9.282;2023-07-29T14:51:19;26.50;99.90
2158;DHT22;41972;48.774;9.282;2023-07-29T14:53:45;26.00;99.90
2158;DHT22;41972;48.774;9.282;2023-07-29T14:56:10;26.00;99.90
2158;DHT22;41972;48.774;9.282;2023-07-29T14:58:36;26.30;99.90
2158;DHT22;41972;48.774;9.282;2023-07-29T15:01:01;25.60;99.90
2158;DHT22;41972;48.774;9.282;2023-07-29T15:03:27;26.00;99.90
2158;DHT22;41972;48.774;9.282;2023-07-29T15:05:53;26.20;99.90
2158;DHT22;41972;48.774;9.282;2023-07-29T15:08:18;26.40;99.90
2158;DHT22;41972;48.774;9.282;2023-07-29T15:10:48;26.20;99.90
2158;DHT22;41972;48.774;9.282;2023-07-29T15:13:14;26.30;99.90
2158;DHT22;41972;48.774;9.282;2023-07-29T15:15:43;26.30;99.90
2158;DHT22;41972;48.774;9.282;2023-07-29T15:18:10;26.40;99.90
2158;DHT22;41972;48.774;9.282;2023-07-29T15:20:35;26.60;99.90
2158;DHT22;41972;48.774;9.282;2023-07-29T15:23:01;26.60;99.90
2158;DHT22;41972;48.774;9.282;2023-07-29T15:25:27;26.80;99.90
2158;DHT22;41972;48.774;9.282;2023-07-29T15:27:52;27.20;99.90
2158;DHT22;41972;48.774;9.282;2023-07-29T15:30:18;26.70;99.90
2158;DHT22;41972;48.774;9.282;2023-07-29T15:32:43;26.80;99.90
2158;DHT22;41972;48.774;9.282;2023-07-29T15:35:10;26.80;99.90
2158;DHT22;41972;48.774;9.282;2023-07-29T15:37:36;26.30;99.90
2158;DHT22;41972;48.774;9.282;2023-07-29T15:40:01;26.10;99.90
2158;DHT22;41972;48.774;9.282;2023-07-29T15:42:27;26.20;99.90
2158;DHT22;41972;48.774;9.282;2023-07-29T15:44:52;26.10;99.90
2158;DHT22;41972;48.774;9.282;2023-07-29T15:47:18;26.30;99.90
2158;DHT22;41972;48.774;9.282;2023-07-29T15:49:44;26.20;99.90
2158;DHT22;41972;48.774;9.282;2023-07-29T15:52:10;26.10;99.90